createdAt,value
2024-03-09T00:00:44.461Z,7.47
2024-03-09T00:03:14.005Z,8.63
2024-03-09T00:05:41.928Z,9.13
2024-03-09T00:08:11.269Z,9.00
2024-03-09T00:10:39.630Z,8.75
2024-03-09T00:13:11.266Z,8.02
2024-03-09T00:15:39.134Z,7.23
2024-03-09T00:18:07.363Z,8.60
2024-03-09T00:20:37.590Z,7.03
2024-03-09T00:23:09.368Z,8.55
2024-03-09T00:25:38.715Z,8.68
2024-03-09T00:28:07.222Z,7.97
2024-03-09T00:30:36.603Z,7.28
2024-03-09T00:33:07.843Z,7.20
2024-03-09T00:35:36.623Z,7.85
2024-03-09T00:38:05.662Z,7.80
2024-03-09T00:40:34.033Z,8.30
2024-03-09T00:43:08.470Z,7.88
2024-03-09T00:45:36.133Z,7.35
2024-03-09T00:48:05.216Z,8.48
2024-03-09T00:50:33.390Z,7.78
2024-03-09T00:53:00.841Z,8.03
2024-03-09T00:55:28.595Z,7.22
2024-03-09T00:57:57.369Z,8.82
2024-03-09T01:00:25.720Z,7.72
2024-03-09T01:02:54.111Z,7.65
2024-03-09T01:05:24.903Z,8.10
2024-03-09T01:07:53.252Z,7.40
2024-03-09T01:10:21.156Z,7.40
2024-03-09T01:12:49.374Z,7.75
2024-03-09T01:15:17.039Z,7.97
2024-03-09T01:17:44.468Z,8.50
2024-03-09T01:20:14.298Z,9.70
2024-03-09T01:22:45.614Z,8.65
2024-03-09T01:25:13.897Z,8.35
2024-03-09T01:27:41.831Z,8.07
2024-03-09T01:30:11.666Z,7.57
2024-03-09T01:32:45.442Z,8.43
2024-03-09T01:35:14.770Z,9.27
2024-03-09T01:37:42.732Z,7.72
2024-03-09T01:40:12.170Z,8.05
2024-03-09T01:42:39.403Z,7.57
2024-03-09T01:45:08.291Z,8.43
2024-03-09T01:47:36.373Z,8.55
2024-03-09T01:50:05.975Z,7.32
2024-03-09T01:52:34.728Z,8.85
2024-03-09T01:55:09.523Z,8.43
2024-03-09T01:57:38.346Z,8.10
2024-03-09T02:00:11.650Z,8.73
2024-03-09T02:02:39.604Z,8.82
2024-03-09T02:05:14.320Z,8.23
2024-03-09T02:07:42.223Z,8.67
2024-03-09T02:10:13.282Z,8.27
2024-03-09T02:12:45.541Z,8.18
2024-03-09T02:15:17.406Z,9.15
2024-03-09T02:17:48.725Z,9.77
2024-03-09T02:20:18.176Z,8.47
2024-03-09T02:22:48.073Z,7.97
2024-03-09T02:25:16.753Z,9.30
2024-03-09T02:27:44.433Z,8.20
2024-03-09T02:30:13.331Z,8.18
2024-03-09T02:32:43.566Z,7.83
2024-03-09T02:35:11.320Z,9.35
2024-03-09T02:37:40.777Z,9.30
2024-03-09T02:40:11.402Z,7.38
2024-03-09T02:43:01.565Z,9.13
2024-03-09T02:45:29.323Z,9.07
2024-03-09T02:47:57.316Z,7.20
2024-03-09T02:50:27.962Z,8.05
2024-03-09T02:52:56.211Z,8.25
2024-03-09T02:55:25.027Z,8.35
2024-03-09T02:57:52.575Z,8.03
2024-03-09T03:00:27.292Z,8.68
2024-03-09T03:03:13.688Z,8.32
2024-03-09T03:05:45.502Z,8.75
2024-03-09T03:08:13.280Z,7.70
2024-03-09T03:10:42.080Z,7.73
2024-03-09T03:13:09.622Z,7.93
2024-03-09T03:15:39.091Z,8.40
2024-03-09T03:18:09.982Z,7.45
2024-03-09T03:20:37.462Z,8.32
2024-03-09T03:23:05.703Z,7.80
2024-03-09T03:25:33.016Z,6.88
2024-03-09T03:28:00.192Z,7.22
2024-03-09T03:30:27.625Z,8.27
2024-03-09T03:32:56.089Z,8.55
2024-03-09T03:35:26.142Z,7.07
2024-03-09T03:38:00.393Z,7.40
2024-03-09T03:40:28.001Z,8.52
2024-03-09T03:42:55.316Z,7.93
2024-03-09T03:45:22.599Z,7.35
2024-03-09T03:47:50.263Z,6.90
2024-03-09T03:50:17.491Z,8.57
2024-03-09T03:52:44.718Z,7.82
2024-03-09T03:55:15.294Z,7.63
2024-03-09T03:57:44.169Z,7.90
2024-03-09T04:00:13.659Z,8.37
2024-03-09T04:02:42.618Z,7.30
2024-03-09T04:05:10.488Z,6.85
2024-03-09T04:07:38.280Z,7.72
2024-03-09T04:10:13.240Z,8.00
2024-03-09T04:12:42.207Z,7.93
2024-03-09T04:15:10.953Z,7.22
2024-03-09T04:17:38.384Z,8.35
2024-03-09T04:20:06.926Z,8.15
2024-03-09T04:22:35.446Z,9.05
2024-03-09T04:25:03.238Z,6.87
2024-03-09T04:27:33.481Z,6.85
2024-03-09T04:30:00.634Z,8.68
2024-03-09T04:32:28.640Z,8.38
2024-03-09T04:34:56.211Z,7.43
2024-03-09T04:37:26.746Z,7.70
2024-03-09T04:39:55.986Z,7.38
2024-03-09T04:42:26.315Z,7.03
2024-03-09T04:44:54.128Z,7.80
2024-03-09T04:47:23.649Z,8.18
2024-03-09T04:49:51.129Z,7.53
2024-03-09T04:52:18.531Z,7.75
2024-03-09T04:54:45.742Z,7.38
2024-03-09T04:57:18.574Z,7.80
2024-03-09T04:59:45.883Z,7.10
2024-03-09T05:02:13.204Z,8.40
2024-03-09T05:04:40.838Z,8.15
2024-03-09T05:07:08.110Z,7.43
2024-03-09T05:09:38.206Z,7.40
2024-03-09T05:12:05.980Z,7.45
2024-03-09T05:14:33.287Z,7.97
2024-03-09T05:17:00.749Z,8.32
2024-03-09T05:19:27.970Z,7.97
2024-03-09T05:21:55.287Z,7.28
2024-03-09T05:24:23.381Z,8.43
2024-03-09T05:26:50.580Z,7.20
2024-03-09T05:29:18.972Z,6.47
2024-03-09T05:31:46.143Z,6.97
2024-03-09T05:34:13.374Z,6.47
2024-03-09T05:36:40.528Z,6.80
2024-03-09T05:39:07.863Z,6.97
2024-03-09T05:41:37.419Z,6.57
2024-03-09T05:44:04.926Z,7.57
2024-03-09T05:46:34.041Z,7.53
2024-03-09T05:49:01.490Z,6.47
2024-03-09T05:51:31.173Z,6.60
2024-03-09T05:53:59.963Z,6.55
2024-03-09T05:56:27.201Z,8.00
2024-03-09T05:58:54.484Z,5.78
2024-03-09T06:01:28.440Z,7.78
2024-03-09T06:03:56.029Z,6.93
2024-03-09T06:06:24.604Z,7.13
2024-03-09T06:08:52.140Z,7.70
2024-03-09T06:11:20.145Z,6.82
2024-03-09T06:13:48.586Z,6.53
2024-03-09T06:16:18.299Z,7.45
2024-03-09T06:18:51.549Z,7.13
2024-03-09T06:21:18.826Z,7.15
2024-03-09T06:23:47.264Z,6.78
2024-03-09T06:26:14.581Z,6.95
2024-03-09T06:28:43.655Z,6.20
2024-03-09T06:31:12.246Z,7.65
2024-03-09T06:33:39.446Z,7.40
2024-03-09T06:36:08.329Z,6.10
2024-03-09T06:38:38.610Z,7.28
2024-03-09T06:41:06.190Z,6.30
2024-03-09T06:43:33.463Z,6.18
2024-03-09T06:46:01.726Z,6.63
2024-03-09T06:48:31.653Z,6.90
2024-03-09T06:51:00.243Z,6.90
2024-03-09T06:53:28.733Z,6.15
2024-03-09T06:55:56.012Z,6.53
2024-03-09T06:58:23.137Z,6.68
2024-03-09T07:00:50.558Z,6.60
2024-03-09T07:03:17.874Z,6.68
2024-03-09T07:05:46.757Z,6.20
2024-03-09T07:08:17.897Z,7.47
2024-03-09T07:10:45.642Z,6.67
2024-03-09T07:13:12.807Z,6.35
2024-03-09T07:15:42.419Z,6.63
2024-03-09T07:18:12.754Z,6.25
2024-03-09T07:20:40.666Z,7.05
2024-03-09T07:23:07.914Z,5.87
2024-03-09T07:25:36.060Z,7.43
2024-03-09T07:28:03.229Z,6.70
2024-03-09T07:30:34.646Z,6.25
2024-03-09T07:33:02.769Z,7.43
2024-03-09T07:35:31.314Z,6.70
2024-03-09T07:38:01.092Z,6.10
2024-03-09T07:40:38.115Z,5.95
2024-03-09T07:43:07.027Z,6.60
2024-03-09T07:45:34.984Z,6.30
2024-03-09T07:48:02.926Z,5.77
2024-03-09T07:50:30.369Z,7.05
2024-03-09T07:52:59.183Z,6.85
2024-03-09T07:55:28.471Z,6.47
2024-03-09T07:58:09.344Z,6.82
2024-03-09T08:00:46.687Z,5.00
2024-03-09T08:03:14.987Z,6.13
2024-03-09T08:05:43.053Z,5.82
2024-03-09T08:08:12.153Z,6.25
2024-03-09T08:10:49.418Z,6.13
2024-03-09T08:13:20.616Z,6.10
2024-03-09T08:15:47.869Z,6.05
2024-03-09T08:18:15.705Z,5.97
2024-03-09T08:20:43.102Z,5.57
2024-03-09T08:23:10.554Z,5.85
2024-03-09T08:25:38.129Z,6.03
2024-03-09T08:28:06.643Z,5.03
2024-03-09T08:30:34.151Z,4.88
2024-03-09T08:33:01.668Z,5.47
2024-03-09T08:35:31.060Z,6.55
2024-03-09T08:37:58.773Z,5.53
2024-03-09T08:40:32.282Z,5.65
2024-03-09T08:43:00.162Z,6.28
2024-03-09T08:45:28.818Z,6.90
2024-03-09T08:47:56.622Z,5.78
2024-03-09T08:50:28.860Z,5.27
2024-03-09T08:53:00.649Z,5.70
2024-03-09T08:55:28.971Z,5.88
2024-03-09T08:57:56.307Z,5.45
2024-03-09T09:00:26.897Z,5.22
2024-03-09T09:02:57.814Z,4.20
2024-03-09T09:05:28.885Z,5.85
2024-03-09T09:07:57.736Z,6.05
2024-03-09T09:10:26.779Z,4.50
2024-03-09T09:12:55.658Z,5.60
2024-03-09T09:15:26.101Z,5.53
2024-03-09T09:17:55.198Z,5.38
2024-03-09T09:20:23.477Z,5.97
2024-03-09T09:22:52.227Z,6.05
2024-03-09T09:25:28.215Z,5.57
2024-03-09T09:27:58.336Z,5.53
2024-03-09T09:30:27.805Z,5.68
2024-03-09T09:32:55.860Z,5.00
2024-03-09T09:35:23.417Z,5.22
2024-03-09T09:37:50.730Z,5.25
2024-03-09T09:40:21.405Z,5.43
2024-03-09T09:42:50.073Z,4.95
2024-03-09T09:45:24.147Z,5.00
2024-03-09T09:47:51.875Z,5.50
2024-03-09T09:50:22.548Z,5.43
2024-03-09T09:52:52.222Z,5.40
2024-03-09T09:55:23.072Z,4.72
2024-03-09T09:57:53.252Z,5.20
2024-03-09T10:00:24.871Z,4.30
2024-03-09T10:03:00.040Z,5.20
2024-03-09T10:05:30.650Z,4.50
2024-03-09T10:08:06.286Z,5.00
2024-03-09T10:10:38.072Z,5.35
2024-03-09T10:13:20.880Z,4.57
2024-03-09T10:15:52.321Z,4.50
2024-03-09T10:18:21.373Z,3.97
2024-03-09T10:20:51.378Z,4.50
2024-03-09T10:23:20.662Z,5.25
2024-03-09T10:25:49.128Z,5.03
2024-03-09T10:28:16.687Z,4.15
2024-03-09T10:30:44.597Z,4.40
2024-03-09T10:33:13.414Z,4.88
2024-03-09T10:35:47.979Z,4.35
2024-03-09T10:38:20.500Z,4.90
2024-03-09T10:40:49.872Z,5.45
2024-03-09T10:43:19.112Z,4.47
2024-03-09T10:46:01.570Z,4.72
2024-03-09T10:48:30.573Z,4.18
2024-03-09T10:51:15.862Z,3.80
2024-03-09T10:53:49.203Z,4.10
2024-03-09T10:56:23.575Z,4.23
2024-03-09T10:58:52.566Z,4.38
2024-03-09T11:01:24.961Z,3.95
2024-03-09T11:03:53.418Z,4.18
2024-03-09T11:06:23.252Z,4.43
2024-03-09T11:08:54.684Z,4.50
2024-03-09T11:11:25.014Z,4.40
2024-03-09T11:13:52.968Z,4.60
2024-03-09T11:16:25.091Z,4.30
2024-03-09T11:18:58.069Z,4.22
2024-03-09T11:21:35.495Z,3.87
2024-03-09T11:24:12.901Z,3.85
2024-03-09T11:26:53.508Z,3.67
2024-03-09T11:29:40.202Z,3.60
2024-03-09T11:32:13.567Z,3.97
2024-03-09T11:34:42.932Z,4.33
2024-03-09T11:37:14.601Z,4.47
2024-03-09T11:39:47.327Z,4.53
2024-03-09T11:42:19.547Z,4.25
2024-03-09T11:44:46.777Z,4.90
2024-03-09T11:47:14.012Z,3.90
2024-03-09T11:49:41.842Z,4.93
2024-03-09T11:52:13.033Z,4.47
2024-03-09T11:54:41.401Z,4.28
2024-03-09T11:57:09.941Z,4.25
2024-03-09T11:59:37.341Z,4.47
2024-03-09T12:02:08.499Z,4.15
2024-03-09T12:04:36.652Z,4.20
2024-03-09T12:07:10.405Z,3.83
2024-03-09T12:09:45.647Z,5.13
2024-03-09T12:12:14.863Z,4.10
2024-03-09T12:14:46.000Z,4.80
2024-03-09T12:17:14.037Z,4.35
2024-03-09T12:19:43.649Z,3.55
2024-03-09T12:22:12.021Z,4.40
2024-03-09T12:24:39.252Z,3.60
2024-03-09T12:27:09.384Z,4.10
2024-03-09T12:29:38.066Z,3.65
2024-03-09T12:32:06.651Z,3.60
2024-03-09T12:34:33.947Z,4.25
2024-03-09T12:37:01.283Z,3.70
2024-03-09T12:39:31.565Z,4.00
2024-03-09T12:41:58.820Z,3.35
2024-03-09T12:44:26.505Z,3.65
2024-03-09T12:46:55.967Z,3.83
2024-03-09T12:49:23.611Z,3.43
2024-03-09T12:51:52.365Z,3.22
2024-03-09T12:54:21.034Z,3.17
2024-03-09T12:56:50.742Z,2.90
2024-03-09T12:59:27.223Z,3.22
2024-03-09T13:01:55.487Z,2.93
2024-03-09T13:04:27.497Z,3.03
2024-03-09T13:06:58.354Z,3.13
2024-03-09T13:09:34.008Z,2.70
2024-03-09T13:12:06.558Z,2.90
2024-03-09T13:14:38.580Z,2.43
2024-03-09T13:17:07.729Z,3.50
2024-03-09T13:19:38.462Z,3.25
2024-03-09T13:22:07.938Z,2.60
2024-03-09T13:24:35.787Z,3.13
2024-03-09T13:27:03.484Z,2.20
2024-03-09T13:29:31.440Z,2.67
2024-03-09T13:32:00.118Z,3.55
2024-03-09T13:34:32.300Z,2.38
2024-03-09T13:37:00.936Z,3.03
2024-03-09T13:39:35.584Z,2.40
2024-03-09T13:42:09.958Z,2.70
2024-03-09T13:44:38.168Z,3.05
2024-03-09T13:47:06.624Z,2.13
2024-03-09T13:49:34.517Z,2.78
2024-03-09T13:52:01.879Z,2.20
2024-03-09T13:54:30.376Z,2.45
2024-03-09T13:56:57.591Z,2.45
2024-03-09T13:59:25.438Z,2.28
2024-03-09T14:01:52.765Z,2.67
2024-03-09T14:04:22.548Z,2.50
2024-03-09T14:07:03.091Z,2.60
2024-03-09T14:09:46.473Z,2.63
2024-03-09T14:12:17.035Z,2.40
2024-03-09T14:14:44.273Z,3.05
2024-03-09T14:17:12.149Z,2.40
2024-03-09T14:19:40.621Z,2.70
2024-03-09T14:22:12.303Z,2.35
2024-03-09T14:24:40.015Z,2.50
2024-03-09T14:27:10.270Z,2.58
2024-03-09T14:29:37.850Z,2.83
2024-03-09T14:32:07.790Z,2.67
2024-03-09T14:34:36.307Z,3.35
2024-03-09T14:37:03.969Z,2.20
2024-03-09T14:39:31.916Z,2.45
2024-03-09T14:41:59.279Z,2.37
2024-03-09T14:44:28.558Z,2.58
2024-03-09T14:46:56.181Z,2.75
2024-03-09T14:49:23.633Z,2.63
2024-03-09T14:51:50.855Z,2.53
2024-03-09T14:54:21.027Z,2.33
2024-03-09T14:56:49.298Z,2.50
2024-03-09T14:59:17.208Z,2.58
2024-03-09T15:01:48.179Z,2.15
2024-03-09T15:04:16.376Z,2.88
2024-03-09T15:06:43.659Z,2.60
2024-03-09T15:09:21.764Z,2.50
2024-03-09T15:11:53.547Z,2.63
2024-03-09T15:14:24.357Z,2.13
2024-03-09T15:16:53.717Z,2.50
2024-03-09T15:19:24.830Z,2.00
2024-03-09T15:21:52.132Z,2.13
2024-03-09T15:24:19.887Z,2.22
2024-03-09T15:26:47.239Z,1.98
2024-03-09T15:29:17.101Z,2.17
2024-03-09T15:31:44.675Z,2.60
2024-03-09T15:34:14.663Z,2.40
2024-03-09T15:36:42.215Z,2.50
2024-03-09T15:39:14.572Z,2.33
2024-03-09T15:41:43.632Z,2.30
2024-03-09T15:44:10.989Z,1.70
2024-03-09T15:46:38.392Z,1.90
2024-03-09T15:49:07.548Z,2.53
2024-03-09T15:51:36.997Z,1.95
2024-03-09T15:54:05.216Z,3.05
2024-03-09T15:56:34.926Z,2.50
2024-03-09T15:59:05.735Z,2.33
2024-03-09T16:01:36.724Z,3.05
2024-03-09T16:04:11.245Z,2.80
2024-03-09T16:06:38.993Z,2.72
2024-03-09T16:09:13.285Z,2.23
2024-03-09T16:11:42.529Z,2.28
2024-03-09T16:14:13.494Z,2.90
2024-03-09T16:16:41.688Z,1.90
2024-03-09T16:19:08.955Z,2.72
2024-03-09T16:21:38.651Z,2.30
2024-03-09T16:24:08.404Z,2.92
2024-03-09T16:26:36.102Z,2.78
2024-03-09T16:29:03.655Z,2.63
2024-03-09T16:31:36.700Z,3.17
2024-03-09T16:34:07.900Z,2.20
2024-03-09T16:36:35.683Z,2.95
2024-03-09T16:39:04.521Z,3.63
2024-03-09T16:41:32.185Z,2.92
2024-03-09T16:43:59.551Z,3.25
2024-03-09T16:46:27.926Z,2.97
2024-03-09T16:48:55.240Z,2.60
2024-03-09T16:51:22.614Z,3.03
2024-03-09T16:53:54.481Z,3.40
2024-03-09T16:56:22.071Z,3.25
2024-03-09T16:58:50.169Z,2.30
2024-03-09T17:01:17.750Z,3.63
2024-03-09T17:03:45.216Z,2.70
2024-03-09T17:06:16.996Z,2.65
2024-03-09T17:08:45.518Z,3.20
2024-03-09T17:11:15.637Z,3.10
2024-03-09T17:13:48.255Z,3.38
2024-03-09T17:16:18.819Z,3.67
2024-03-09T17:18:50.198Z,3.20
2024-03-09T17:21:18.378Z,3.80
2024-03-09T17:23:46.775Z,2.93
2024-03-09T17:26:21.329Z,3.70
2024-03-09T17:28:52.432Z,3.22
2024-03-09T17:31:21.159Z,2.42
2024-03-09T17:33:48.404Z,3.78
2024-03-09T17:36:18.211Z,2.90
2024-03-09T17:38:48.345Z,3.33
2024-03-09T17:41:16.158Z,3.30
2024-03-09T17:43:44.121Z,3.03
2024-03-09T17:46:11.432Z,3.60
2024-03-09T17:48:38.584Z,2.20
2024-03-09T17:51:11.167Z,2.50
2024-03-09T17:53:38.610Z,3.85
2024-03-09T17:56:07.582Z,2.97
2024-03-09T17:58:35.143Z,3.22
2024-03-09T18:01:06.100Z,2.60
2024-03-09T18:03:33.522Z,2.42
2024-03-09T18:06:01.213Z,2.20
2024-03-09T18:08:30.643Z,2.63
2024-03-09T18:10:57.812Z,2.95
2024-03-09T18:13:30.421Z,2.27
2024-03-09T18:16:02.823Z,2.15
2024-03-09T18:18:31.350Z,2.47
2024-03-09T18:21:02.041Z,2.15
2024-03-09T18:23:32.201Z,2.13
2024-03-09T18:25:59.450Z,2.20
2024-03-09T18:28:27.195Z,2.92
2024-03-09T18:30:54.419Z,3.30
2024-03-09T18:33:21.685Z,3.20
2024-03-09T18:36:11.888Z,3.10
2024-03-09T18:38:40.989Z,2.87
2024-03-09T18:41:11.224Z,2.83
2024-03-09T18:43:39.019Z,3.17
2024-03-09T18:46:09.865Z,2.58
2024-03-09T18:48:37.136Z,2.42
2024-03-09T18:51:04.764Z,2.40
2024-03-09T18:53:33.495Z,2.38
2024-03-09T18:56:00.994Z,2.50
2024-03-09T18:58:28.209Z,2.33
2024-03-09T19:00:55.653Z,2.85
2024-03-09T19:03:22.916Z,2.93
2024-03-09T19:05:51.095Z,2.50
2024-03-09T19:08:18.623Z,2.28
2024-03-09T19:10:46.710Z,3.00
2024-03-09T19:13:15.427Z,2.60
2024-03-09T19:15:43.393Z,2.60
2024-03-09T19:18:10.691Z,2.47
2024-03-09T19:20:39.732Z,2.35
2024-03-09T19:23:07.195Z,2.67
2024-03-09T19:25:34.574Z,2.45
2024-03-09T19:28:01.892Z,2.17
2024-03-09T19:30:30.302Z,1.52
2024-03-09T19:32:58.546Z,2.70
2024-03-09T19:35:30.279Z,2.38
2024-03-09T19:38:02.068Z,2.45
2024-03-09T19:40:29.985Z,2.33
2024-03-09T19:42:59.324Z,2.08
2024-03-09T19:45:31.383Z,1.83
2024-03-09T19:47:59.527Z,1.70
2024-03-09T19:50:27.496Z,2.70
2024-03-09T19:52:55.320Z,2.10
2024-03-09T19:55:25.254Z,2.38
2024-03-09T19:57:53.585Z,2.33
2024-03-09T20:00:24.097Z,2.30
2024-03-09T20:02:53.640Z,2.38
2024-03-09T20:05:23.354Z,2.00
2024-03-09T20:07:58.324Z,2.60
2024-03-09T20:10:27.382Z,2.22
2024-03-09T20:12:55.210Z,2.63
2024-03-09T20:15:23.859Z,3.00
2024-03-09T20:17:53.457Z,2.70
2024-03-09T20:20:25.586Z,2.00
2024-03-09T20:22:55.548Z,2.13
2024-03-09T20:25:24.422Z,2.30
2024-03-09T20:27:52.781Z,2.00
2024-03-09T20:30:21.426Z,1.70
2024-03-09T20:32:50.498Z,2.25
2024-03-09T20:35:21.593Z,2.13
2024-03-09T20:37:49.732Z,1.92
2024-03-09T20:40:19.110Z,2.40
2024-03-09T20:42:50.170Z,2.07
2024-03-09T20:45:19.283Z,2.63
2024-03-09T20:47:48.421Z,2.33
2024-03-09T20:50:21.215Z,1.80
2024-03-09T20:52:54.504Z,2.25
2024-03-09T20:55:25.295Z,2.30
2024-03-09T20:57:52.713Z,2.05
2024-03-09T21:00:23.720Z,2.20
2024-03-09T21:02:52.302Z,2.40
2024-03-09T21:05:19.966Z,2.22
2024-03-09T21:07:47.601Z,2.33
2024-03-09T21:10:15.027Z,1.98
2024-03-09T21:12:42.727Z,2.05
2024-03-09T21:15:10.752Z,2.20
2024-03-09T21:17:38.409Z,2.80
2024-03-09T21:20:13.251Z,2.87
2024-03-09T21:22:44.821Z,1.90
2024-03-09T21:25:13.241Z,2.60
2024-03-09T21:27:44.183Z,2.20
2024-03-09T21:30:15.679Z,2.67
2024-03-09T21:32:47.520Z,2.73
2024-03-09T21:35:16.365Z,2.22
2024-03-09T21:37:45.666Z,2.70
2024-03-09T21:40:14.825Z,2.75
2024-03-09T21:42:46.028Z,3.10
2024-03-09T21:45:15.234Z,2.30
2024-03-09T21:47:50.039Z,1.90
2024-03-09T21:50:22.848Z,2.25
2024-03-09T21:52:52.262Z,2.13
2024-03-09T21:55:20.220Z,2.92
2024-03-09T21:57:48.310Z,2.83
2024-03-09T22:00:22.239Z,2.45
2024-03-09T22:02:52.723Z,2.08
2024-03-09T22:05:20.948Z,2.28
2024-03-09T22:07:49.290Z,2.17
2024-03-09T22:10:18.865Z,2.00
2024-03-09T22:12:47.027Z,2.50
2024-03-09T22:15:14.492Z,1.83
2024-03-09T22:17:41.953Z,2.78
2024-03-09T22:20:13.981Z,2.88
2024-03-09T22:22:51.722Z,2.50
2024-03-09T22:25:20.630Z,2.58
2024-03-09T22:27:48.897Z,3.38
2024-03-09T22:30:17.289Z,3.22
2024-03-09T22:32:45.285Z,3.13
2024-03-09T22:35:16.315Z,2.87
2024-03-09T22:37:45.520Z,2.97
2024-03-09T22:40:16.805Z,2.92
2024-03-09T22:42:45.409Z,2.70
2024-03-09T22:45:16.257Z,3.42
2024-03-09T22:47:46.370Z,2.83
2024-03-09T22:50:24.599Z,3.08
2024-03-09T22:52:54.404Z,3.20
2024-03-09T22:55:22.143Z,3.25
2024-03-09T22:57:49.487Z,3.88
2024-03-09T23:00:25.775Z,3.27
2024-03-09T23:02:53.258Z,2.92
2024-03-09T23:05:21.389Z,3.00
2024-03-09T23:07:48.700Z,3.00
2024-03-09T23:10:15.944Z,3.25
2024-03-09T23:12:46.279Z,2.63
2024-03-09T23:15:17.269Z,3.38
2024-03-09T23:17:45.968Z,3.33
2024-03-09T23:20:14.260Z,3.38
2024-03-09T23:22:46.280Z,3.42
2024-03-09T23:25:16.321Z,2.83
2024-03-09T23:27:49.177Z,3.60
2024-03-09T23:30:18.667Z,3.72
2024-03-09T23:32:50.461Z,3.65
2024-03-09T23:35:19.389Z,3.60
2024-03-09T23:37:50.295Z,3.23
2024-03-09T23:40:21.152Z,4.05
2024-03-09T23:42:49.299Z,3.60
2024-03-09T23:45:17.117Z,3.90
2024-03-09T23:47:51.638Z,4.25
2024-03-09T23:50:21.043Z,3.60
2024-03-09T23:52:49.589Z,4.05
2024-03-09T23:55:18.856Z,4.28
2024-03-09T23:57:48.726Z,4.43
